X  Close Metar Aviation Weather Data     EHKD De Kooy Airport
Temperature
7°C Temperature
2°C Dewpoint
71% Humidity



Wind
21 KM/H
13 MPH
6 M/S
11 KTS



340°
NNW
Current Conditions

Partly Cloudy Partly Cloudy
Pressure 1017.95 (hPa) - 30.06 (inHg)
Visibility 6 (mile) - 9.7 (km)
Airport
Airport-code EHKD

Location: De Kooy Airport
Distance: 34 (km)

Metar:
EHKD 200325Z AUTO 34011KT 280V040 9999 FEW024 SCT028 BKN031 07/02 Q1018 REDZ BLU

Time: 20-04-2024 05:25 CEST